createdAt,value
2023-03-06T08:28:40.088Z,42.20
2023-03-06T08:29:40.116Z,37.80
2023-03-06T08:30:40.193Z,36.20
2023-03-06T08:31:40.044Z,34.80
2023-03-06T08:32:40.020Z,37.80
2023-03-06T08:33:39.991Z,36.80
2023-03-06T08:34:39.946Z,33.90
2023-03-06T08:35:40.164Z,36.70
2023-03-06T08:36:39.933Z,33.60
2023-03-06T08:37:41.104Z,33.60
2023-03-06T08:38:41.066Z,35.30
2023-03-06T08:39:41.059Z,33.70
2023-03-06T08:40:40.999Z,32.30
2023-03-06T08:41:40.988Z,29.80
2023-03-06T08:42:41.010Z,31.50
2023-03-06T08:43:40.998Z,30.90
2023-03-06T08:44:40.978Z,31.50
2023-03-06T08:45:41.098Z,32.90
2023-03-06T08:46:40.936Z,30.10
2023-03-06T08:47:40.918Z,30.50
2023-03-06T08:48:40.914Z,30.10
2023-03-06T08:49:40.934Z,31.60
2023-03-06T08:50:40.892Z,30.70
2023-03-06T08:51:40.874Z,26.60
2023-03-06T08:52:40.888Z,29.60
2023-03-06T08:53:43.627Z,28.30
2023-03-06T08:54:41.881Z,30.40
2023-03-06T08:55:40.898Z,28.30
2023-03-06T08:56:40.851Z,28.90
2023-03-06T08:57:40.802Z,29.70
2023-03-06T08:58:40.799Z,29.00
2023-03-06T08:59:40.830Z,29.00
2023-03-06T09:00:40.851Z,28.30
2023-03-06T09:01:40.822Z,28.40
2023-03-06T09:02:40.996Z,31.10
2023-03-06T09:03:42.621Z,31.10
2023-03-06T09:04:40.746Z,27.90
2023-03-06T09:05:40.741Z,30.20
2023-03-06T09:06:40.713Z,31.80
2023-03-06T09:07:40.693Z,32.80
2023-03-06T09:08:40.709Z,30.80
2023-03-06T09:09:40.693Z,32.20
2023-03-06T09:10:40.706Z,30.50
2023-03-06T09:11:40.656Z,31.20
2023-03-06T09:12:49.862Z,29.60
2023-03-06T09:13:40.779Z,28.90
2023-03-06T09:14:40.630Z,29.70
2023-03-06T09:15:40.750Z,31.60
2023-03-06T09:16:41.079Z,29.90
2023-03-06T09:17:40.695Z,30.50
2023-03-06T09:18:40.595Z,28.70
2023-03-06T09:19:40.609Z,28.80
2023-03-06T09:20:40.565Z,29.10
2023-03-06T09:21:40.542Z,28.60
2023-03-06T09:22:40.550Z,29.40
2023-03-06T09:23:40.513Z,28.70
2023-03-06T09:24:40.781Z,29.10
2023-03-06T09:25:40.585Z,30.30
2023-03-06T09:26:46.161Z,27.70
2023-03-06T09:27:41.499Z,26.50
2023-03-06T09:28:40.442Z,29.70
2023-03-06T09:29:40.457Z,27.70
2023-03-06T09:30:40.591Z,26.90
2023-03-06T09:31:40.435Z,29.10
2023-03-06T09:32:40.572Z,27.00
2023-03-06T09:33:40.445Z,28.00
2023-03-06T09:34:40.413Z,29.70
2023-03-06T09:35:40.465Z,27.90
2023-03-06T09:36:55.644Z,29.50
2023-03-06T09:37:41.393Z,27.00
2023-03-06T09:38:40.381Z,28.50
2023-03-06T09:39:40.380Z,26.00
2023-03-06T09:40:40.378Z,24.50
2023-03-06T09:41:40.305Z,26.50
2023-03-06T09:42:40.308Z,25.10
2023-03-06T09:43:40.327Z,29.00
2023-03-06T09:44:40.284Z,30.90
2023-03-06T09:45:40.350Z,26.70
2023-03-06T09:46:40.273Z,27.70
2023-03-06T09:47:40.230Z,27.50
2023-03-06T09:48:40.237Z,28.70
2023-03-06T09:49:40.244Z,26.30
2023-03-06T09:50:40.260Z,26.80
2023-03-06T09:51:40.191Z,26.40
2023-03-06T09:52:40.214Z,29.50
2023-03-06T09:53:40.187Z,24.90
2023-03-06T09:54:40.157Z,25.60
2023-03-06T09:55:40.216Z,27.20
2023-03-06T09:56:40.154Z,27.90
2023-03-06T09:57:40.117Z,24.90
2023-03-06T09:58:40.120Z,25.40
2023-03-06T09:59:40.112Z,22.30
2023-03-06T10:00:40.115Z,27.30
2023-03-06T10:01:40.085Z,25.10
2023-03-06T10:02:40.197Z,23.00
2023-03-06T10:03:40.097Z,23.40
2023-03-06T10:04:40.158Z,23.40
2023-03-06T10:05:40.100Z,21.20
2023-03-06T10:06:40.026Z,21.60
2023-03-06T10:07:40.025Z,19.50
2023-03-06T10:08:40.009Z,19.20
2023-03-06T10:09:39.990Z,20.80
2023-03-06T10:10:40.050Z,19.40
2023-03-06T10:11:39.975Z,18.40
2023-03-06T10:12:39.983Z,19.10
2023-03-06T10:13:39.950Z,18.20
2023-03-06T10:14:39.935Z,21.40
2023-03-06T10:15:39.977Z,19.30
2023-03-06T10:16:39.926Z,17.20
2023-03-06T10:17:42.193Z,16.90
2023-03-06T10:18:39.946Z,17.90
2023-03-06T10:19:39.908Z,19.70
2023-03-06T10:20:40.393Z,21.50
2023-03-06T10:21:39.909Z,19.70
2023-03-06T10:22:39.852Z,24.70
2023-03-06T10:23:39.834Z,21.50
2023-03-06T10:24:39.828Z,22.40
2023-03-06T10:25:39.849Z,21.70
2023-03-06T10:26:39.963Z,23.20
2023-03-06T10:27:39.792Z,22.00
2023-03-06T10:28:39.838Z,21.60
2023-03-06T10:29:41.048Z,22.40
2023-03-06T10:30:39.760Z,21.10
2023-03-06T10:31:39.805Z,21.10
2023-03-06T10:32:47.916Z,20.70
2023-03-06T10:33:39.755Z,21.60
2023-03-06T10:34:39.743Z,19.60
2023-03-06T10:35:39.703Z,20.00
2023-03-06T10:36:39.696Z,21.90
2023-03-06T10:37:39.767Z,21.00
2023-03-06T10:38:39.666Z,22.30
2023-03-06T10:39:39.652Z,19.30
2023-03-06T10:40:39.703Z,20.70
2023-03-06T10:41:39.651Z,21.40
2023-03-06T10:42:39.693Z,19.00
2023-03-06T10:43:39.637Z,21.50
2023-03-06T10:44:39.656Z,21.50
2023-03-06T10:45:48.974Z,21.80
2023-03-06T10:46:40.740Z,21.00
2023-03-06T10:47:39.589Z,21.70
2023-03-06T10:48:41.709Z,22.40
2023-03-06T10:49:39.557Z,21.90
2023-03-06T10:50:39.563Z,20.70
2023-03-06T10:51:39.542Z,20.50
2023-03-06T10:52:39.520Z,19.60
2023-03-06T10:53:39.562Z,19.70
2023-03-06T10:54:39.508Z,19.00
2023-03-06T10:55:39.508Z,18.30
2023-03-06T10:56:39.538Z,19.50
2023-03-06T10:57:39.471Z,20.70
2023-03-06T10:58:39.504Z,16.80
2023-03-06T10:59:39.436Z,15.50
2023-03-06T11:00:39.441Z,16.80
2023-03-06T11:01:39.444Z,15.80
2023-03-06T11:02:39.434Z,16.90
2023-03-06T11:03:39.413Z,14.70
2023-03-06T11:04:39.390Z,17.00
2023-03-06T11:05:39.392Z,14.30
2023-03-06T11:06:39.368Z,14.40
2023-03-06T11:07:39.360Z,17.70
2023-03-06T11:08:39.347Z,17.20
2023-03-06T11:09:39.369Z,17.30
2023-03-06T11:10:39.303Z,15.80
2023-03-06T11:11:39.306Z,15.50
2023-03-06T11:12:39.357Z,16.60
2023-03-06T11:13:39.277Z,17.40
2023-03-06T11:14:39.329Z,15.50
2023-03-06T11:15:39.942Z,16.20
2023-03-06T11:16:39.292Z,15.40
2023-03-06T11:17:39.235Z,16.80
2023-03-06T11:18:39.232Z,17.20
2023-03-06T11:19:39.257Z,17.80
2023-03-06T11:20:50.985Z,14.60
2023-03-06T11:21:39.231Z,15.70
2023-03-06T11:22:39.218Z,18.00
2023-03-06T11:23:39.182Z,17.80
2023-03-06T11:24:39.796Z,16.40
2023-03-06T11:25:39.209Z,19.30
2023-03-06T11:26:39.143Z,18.70
2023-03-06T11:27:39.125Z,16.80
2023-03-06T11:28:39.112Z,16.50
2023-03-06T11:29:39.217Z,17.00
2023-03-06T11:30:39.128Z,16.80
2023-03-06T11:31:39.175Z,20.90
2023-03-06T11:32:39.103Z,15.90
2023-03-06T11:33:39.061Z,19.40
2023-03-06T11:34:39.028Z,18.90
2023-03-06T11:35:39.098Z,17.40
2023-03-06T11:36:39.016Z,21.40
2023-03-06T11:37:39.007Z,17.40
2023-03-06T11:38:39.043Z,15.10
2023-03-06T11:39:38.981Z,16.50
2023-03-06T11:40:39.007Z,18.30
2023-03-06T11:41:38.992Z,16.90
2023-03-06T11:42:38.950Z,17.40
2023-03-06T11:43:38.963Z,16.80
2023-03-06T11:44:38.968Z,17.90
2023-03-06T11:45:38.908Z,15.20
2023-03-06T11:46:38.972Z,14.80
2023-03-06T11:47:38.885Z,15.10
2023-03-06T11:48:38.904Z,17.50
2023-03-06T11:49:38.866Z,15.70
2023-03-06T11:50:39.852Z,15.80
2023-03-06T11:51:38.886Z,16.30
2023-03-06T11:52:38.839Z,16.30
2023-03-06T11:53:38.849Z,16.90
2023-03-06T11:54:38.791Z,15.80
2023-03-06T11:55:38.846Z,17.20
2023-03-06T11:56:38.825Z,15.80
2023-03-06T11:57:38.789Z,15.10
2023-03-06T11:58:38.784Z,16.30
2023-03-06T11:59:38.795Z,15.40
2023-03-06T12:00:38.740Z,14.20
2023-03-06T12:01:38.803Z,14.90
2023-03-06T12:02:38.739Z,14.60
2023-03-06T12:03:38.711Z,14.40
2023-03-06T12:04:38.729Z,14.50
2023-03-06T12:05:38.788Z,12.30
2023-03-06T12:06:38.713Z,12.70
2023-03-06T12:07:38.728Z,14.10
2023-03-06T12:08:38.662Z,13.80
2023-03-06T12:09:38.637Z,14.80
2023-03-06T12:10:38.654Z,13.40
2023-03-06T12:11:38.638Z,15.00
2023-03-06T12:12:38.662Z,14.00
2023-03-06T12:13:38.600Z,14.80
2023-03-06T12:14:38.625Z,14.60
2023-03-06T12:15:38.600Z,14.60
2023-03-06T12:16:38.688Z,14.90
2023-03-06T12:17:38.554Z,15.30
2023-03-06T12:18:38.592Z,13.90
2023-03-06T12:19:38.555Z,14.20
2023-03-06T12:20:38.514Z,14.20
2023-03-06T12:21:38.529Z,13.20
2023-03-06T12:22:38.500Z,13.90
2023-03-06T12:23:39.557Z,13.20
2023-03-06T12:24:38.485Z,13.20
2023-03-06T12:25:38.463Z,14.60
2023-03-06T12:26:38.495Z,13.70
2023-03-06T12:27:38.446Z,13.50
2023-03-06T12:28:38.449Z,14.50
2023-03-06T12:29:38.455Z,14.90
2023-03-06T12:30:38.429Z,15.20
2023-03-06T12:31:38.408Z,14.40
2023-03-06T12:32:38.435Z,13.80
2023-03-06T12:33:38.423Z,13.70
2023-03-06T12:34:38.399Z,16.60
2023-03-06T12:35:38.416Z,13.30
2023-03-06T12:36:38.369Z,14.30
2023-03-06T12:37:38.322Z,12.60
2023-03-06T12:38:38.315Z,14.30
2023-03-06T12:39:38.331Z,12.00
2023-03-06T12:40:38.301Z,13.20
2023-03-06T12:41:38.275Z,14.40
2023-03-06T12:42:38.259Z,14.00
2023-03-06T12:43:40.074Z,15.40
2023-03-06T12:44:38.264Z,14.70
2023-03-06T12:45:38.402Z,12.70
2023-03-06T12:46:38.231Z,14.50
2023-03-06T12:47:38.228Z,15.30
2023-03-06T12:48:38.212Z,13.70
2023-03-06T12:49:38.251Z,14.40
2023-03-06T12:50:38.169Z,13.90
2023-03-06T12:51:38.170Z,14.00
2023-03-06T12:52:38.146Z,14.20
2023-03-06T12:53:38.137Z,14.20
2023-03-06T12:56:03.428Z,15.20
2023-03-06T12:56:09.897Z,13.00
2023-03-06T12:57:09.862Z,14.20
2023-03-06T12:58:09.899Z,16.20
2023-03-06T12:59:09.849Z,12.70
2023-03-06T13:00:09.869Z,12.90
2023-03-06T13:01:10.046Z,14.30
2023-03-06T13:02:09.858Z,15.30
2023-03-06T13:03:09.817Z,15.70
2023-03-06T13:04:09.807Z,16.40
2023-03-06T13:05:09.809Z,15.90
2023-03-06T13:06:09.759Z,15.50
2023-03-06T13:07:09.754Z,16.10
2023-03-06T13:08:09.780Z,17.40
2023-03-06T13:09:09.737Z,15.20
2023-03-06T13:10:10.206Z,16.40
2023-03-06T13:11:09.687Z,17.30
2023-03-06T13:12:09.695Z,17.60
2023-03-06T13:13:09.687Z,17.70
2023-03-06T13:14:09.831Z,17.40
2023-03-06T13:15:09.688Z,17.60
2023-03-06T13:16:09.659Z,17.70
2023-03-06T13:17:09.661Z,16.50
2023-03-06T13:18:09.629Z,16.30
2023-03-06T13:19:09.637Z,20.40
2023-03-06T13:20:09.593Z,15.60
2023-03-06T13:21:09.650Z,14.80
2023-03-06T13:22:09.584Z,15.90
2023-03-06T13:23:09.560Z,16.50
2023-03-06T13:24:09.558Z,17.40
2023-03-06T13:25:09.555Z,17.50
2023-03-06T13:26:09.579Z,18.90
2023-03-06T13:27:09.522Z,15.90
2023-03-06T13:28:09.536Z,19.20
2023-03-06T13:29:09.489Z,19.50
2023-03-06T13:30:09.502Z,19.10
2023-03-06T13:31:21.383Z,19.10
2023-03-06T13:32:09.517Z,15.70
2023-03-06T13:33:09.438Z,21.30
2023-03-06T13:34:09.568Z,18.80
2023-03-06T13:35:09.452Z,20.30
2023-03-06T13:36:09.454Z,16.50
2023-03-06T13:37:09.428Z,16.00
2023-03-06T13:38:09.421Z,16.10
2023-03-06T13:39:09.389Z,16.70
2023-03-06T13:40:09.362Z,17.70
2023-03-06T13:41:09.369Z,18.40
2023-03-06T13:42:09.393Z,17.90
2023-03-06T13:43:09.311Z,16.80
2023-03-06T13:44:09.323Z,17.80
2023-03-06T13:45:09.316Z,18.90
2023-03-06T13:46:09.370Z,18.00
2023-03-06T13:47:09.312Z,20.40
2023-03-06T13:48:33.700Z,18.30
2023-03-06T13:49:11.284Z,18.30
2023-03-06T13:50:09.252Z,19.30
2023-03-06T13:51:09.238Z,20.20
2023-03-06T13:52:09.241Z,17.60
2023-03-06T13:53:09.256Z,20.90
2023-03-06T13:54:09.304Z,17.30
2023-03-06T13:55:09.218Z,18.70
2023-03-06T13:56:09.655Z,18.70
2023-03-06T13:57:09.204Z,18.40
2023-03-06T13:58:09.224Z,21.90
2023-03-06T13:59:11.126Z,21.70
2023-03-06T14:00:10.043Z,20.30
2023-03-06T14:01:09.205Z,17.20
2023-03-06T14:02:09.108Z,22.50
2023-03-06T14:03:09.091Z,21.50
2023-03-06T14:04:10.126Z,27.80
2023-03-06T14:05:10.125Z,23.30
2023-03-06T14:06:09.068Z,31.70
2023-03-06T14:07:09.042Z,22.30
2023-03-06T14:08:09.077Z,22.40
2023-03-06T14:09:09.081Z,26.60
2023-03-06T14:10:09.069Z,26.40
2023-03-06T14:11:09.004Z,37.00
2023-03-06T14:12:09.589Z,29.40
2023-03-06T14:13:08.987Z,35.70
2023-03-06T14:14:08.989Z,34.60
2023-03-06T14:15:09.002Z,33.90
2023-03-06T14:16:09.008Z,29.70
2023-03-06T14:17:08.952Z,33.00
2023-03-06T14:18:08.930Z,31.30
2023-03-06T14:19:08.943Z,35.40
2023-03-06T14:20:08.955Z,37.70
2023-03-06T14:21:08.899Z,28.60
2023-03-06T14:22:08.903Z,34.50
2023-03-06T14:23:08.877Z,33.20
2023-03-06T14:24:08.894Z,30.10
2023-03-06T14:25:08.871Z,33.90
2023-03-06T14:26:08.860Z,34.60
2023-03-06T14:27:09.829Z,40.30
2023-03-06T14:28:14.066Z,33.00
2023-03-06T14:29:08.839Z,28.90
2023-03-06T14:30:08.818Z,33.60
2023-03-06T14:31:08.821Z,32.00
2023-03-06T14:32:08.803Z,37.60
2023-03-06T14:33:08.784Z,30.30
2023-03-06T14:34:08.778Z,26.80
2023-03-06T14:35:08.759Z,24.80
2023-03-06T14:36:08.770Z,23.60
2023-03-06T14:37:08.740Z,25.50
2023-03-06T14:38:08.713Z,22.70
2023-03-06T14:39:08.755Z,23.70
2023-03-06T14:40:08.863Z,23.00
2023-03-06T14:41:08.717Z,28.90
2023-03-06T14:42:08.671Z,28.20
2023-03-06T14:43:08.639Z,28.30
2023-03-06T14:44:08.678Z,25.10
2023-03-06T14:45:08.665Z,24.40
2023-03-06T14:46:08.670Z,20.40
2023-03-06T14:47:08.658Z,19.80
2023-03-06T14:48:08.609Z,22.30
2023-03-06T14:49:08.618Z,18.60
2023-03-06T14:50:08.613Z,20.40
2023-03-06T14:51:09.394Z,18.70
2023-03-06T14:52:08.547Z,19.90
2023-03-06T14:53:08.550Z,23.80
2023-03-06T14:54:08.697Z,22.10
2023-03-06T14:55:08.619Z,25.40
2023-03-06T14:56:08.533Z,25.70
2023-03-06T14:57:08.532Z,28.50
2023-03-06T14:58:08.535Z,23.40
2023-03-06T14:59:08.513Z,20.50
2023-03-06T15:00:09.398Z,22.00
2023-03-06T15:01:08.465Z,17.60
2023-03-06T15:02:08.568Z,21.60
2023-03-06T15:03:08.501Z,24.20
2023-03-06T15:04:08.484Z,26.70
2023-03-06T15:05:08.446Z,24.40
2023-03-06T15:06:08.401Z,21.40
2023-03-06T15:07:08.402Z,22.40
2023-03-06T15:08:08.395Z,23.20
2023-03-06T15:09:08.461Z,24.40
2023-03-06T15:10:08.402Z,20.80
2023-03-06T15:11:08.338Z,20.70
2023-03-06T15:12:08.319Z,21.20
2023-03-06T15:13:08.333Z,23.00
2023-03-06T15:14:08.336Z,18.10
2023-03-06T15:15:08.320Z,21.80
2023-03-06T15:16:08.321Z,20.80
2023-03-06T15:17:08.306Z,20.70
2023-03-06T15:18:08.264Z,17.80
2023-03-06T15:19:08.255Z,20.70
2023-03-06T15:20:08.298Z,22.00
2023-03-06T15:21:08.219Z,20.10
2023-03-06T15:22:08.203Z,23.80
2023-03-06T15:23:08.224Z,22.40
2023-03-06T15:24:08.197Z,22.20
2023-03-06T15:25:08.235Z,20.80
2023-03-06T15:26:08.165Z,21.20
2023-03-06T15:27:08.165Z,21.70
2023-03-06T15:28:08.173Z,20.90
2023-03-06T15:29:10.174Z,20.90
2023-03-06T15:30:09.165Z,20.80
2023-03-06T15:31:08.219Z,21.30
2023-03-06T15:32:08.121Z,19.10
2023-03-06T15:33:08.100Z,19.20
2023-03-06T15:34:09.083Z,17.70
2023-03-06T15:35:08.084Z,21.00
2023-03-06T15:36:08.064Z,20.30
2023-03-06T15:37:08.080Z,18.70
2023-03-06T15:38:08.043Z,19.20
2023-03-06T15:39:08.042Z,21.20
2023-03-06T15:40:08.112Z,19.20
2023-03-06T15:41:08.077Z,20.20
2023-03-06T15:42:07.988Z,19.50
2023-03-06T15:43:08.007Z,19.90
2023-03-06T15:44:07.964Z,20.20
2023-03-06T15:45:07.952Z,20.90
2023-03-06T15:46:08.122Z,22.30
2023-03-06T15:47:09.033Z,21.40
2023-03-06T15:48:08.969Z,21.80
2023-03-06T15:49:07.910Z,22.60
2023-03-06T15:50:07.914Z,21.80
2023-03-06T15:51:07.953Z,21.40
2023-03-06T15:52:07.880Z,21.60
2023-03-06T15:53:07.885Z,21.40
2023-03-06T15:54:12.210Z,21.60
2023-03-06T15:55:08.886Z,22.00
2023-03-06T15:56:07.827Z,22.60
2023-03-06T15:57:07.835Z,21.80
2023-03-06T15:58:07.810Z,20.60
2023-03-06T15:59:07.915Z,22.80
2023-03-06T16:00:12.914Z,23.80
2023-03-06T16:01:07.768Z,22.40
2023-03-06T16:02:07.774Z,25.40
2023-03-06T16:03:07.735Z,25.00
2023-03-06T16:04:07.775Z,24.30
2023-03-06T16:05:07.737Z,21.70
2023-03-06T16:06:07.725Z,21.60
2023-03-06T16:07:07.858Z,22.40
2023-03-06T16:08:09.046Z,24.10
2023-03-06T16:09:07.856Z,21.40
2023-03-06T16:10:07.654Z,23.20
2023-03-06T16:11:07.653Z,20.80
2023-03-06T16:12:07.678Z,21.90
2023-03-06T16:13:07.663Z,22.90
2023-03-06T16:14:07.602Z,22.10
2023-03-06T16:15:07.623Z,24.00
2023-03-06T16:16:07.729Z,20.30
2023-03-06T16:17:07.594Z,21.40
2023-03-06T16:18:07.609Z,22.20
2023-03-06T16:19:11.451Z,20.60
2023-03-06T16:20:07.550Z,20.60
2023-03-06T16:21:07.545Z,23.40
2023-03-06T16:22:07.518Z,20.70
2023-03-06T16:23:08.253Z,21.20
2023-03-06T16:24:07.489Z,24.70
2023-03-06T16:25:07.517Z,21.20
2023-03-06T16:26:07.457Z,23.30
2023-03-06T16:27:07.460Z,21.60
2023-03-06T16:28:07.562Z,20.80
2023-03-06T16:29:07.433Z,23.40
2023-03-06T16:30:07.418Z,24.00
2023-03-06T16:31:07.455Z,22.00
2023-03-06T16:32:07.444Z,24.00
2023-03-06T16:33:07.421Z,23.10
2023-03-06T16:34:07.434Z,21.80
2023-03-06T16:35:07.363Z,20.30
2023-03-06T16:36:07.339Z,23.60
2023-03-06T16:37:07.331Z,24.10
2023-03-06T16:38:07.343Z,22.00
2023-03-06T16:39:07.330Z,24.10
2023-03-06T16:40:08.313Z,23.10
2023-03-06T16:41:07.293Z,24.60
2023-03-06T16:42:07.284Z,23.80
2023-03-06T16:43:07.274Z,22.40
2023-03-06T16:44:07.305Z,24.30
2023-03-06T16:45:07.276Z,24.20
2023-03-06T16:46:07.252Z,22.90
2023-03-06T16:47:07.250Z,23.60
2023-03-06T16:48:07.200Z,24.90
2023-03-06T16:49:07.220Z,24.40
2023-03-06T16:50:07.448Z,25.50
2023-03-06T16:51:07.197Z,24.70
2023-03-06T16:52:07.164Z,22.80
2023-03-06T16:53:07.167Z,25.70
2023-03-06T16:54:07.163Z,23.60
2023-03-06T16:55:07.175Z,24.80
2023-03-06T16:56:07.154Z,26.80
2023-03-06T16:57:07.110Z,22.90
2023-03-06T16:58:07.106Z,23.90
2023-03-06T16:59:07.301Z,25.10
2023-03-06T17:00:07.146Z,24.90
2023-03-06T17:01:07.086Z,25.40
2023-03-06T17:02:07.084Z,23.90
2023-03-06T17:03:07.050Z,25.40
2023-03-06T17:04:07.031Z,23.90
2023-03-06T17:05:07.066Z,24.20
2023-03-06T17:06:07.050Z,25.00
2023-03-06T17:07:07.009Z,27.80
2023-03-06T17:08:06.987Z,23.80
2023-03-06T17:09:06.979Z,22.90
2023-03-06T17:10:06.967Z,23.90
2023-03-06T17:11:06.984Z,26.50
2023-03-06T17:12:06.948Z,25.30
2023-03-06T17:13:06.927Z,24.90
2023-03-06T17:14:07.086Z,23.90
2023-03-06T17:15:06.918Z,21.80
2023-03-06T17:16:06.951Z,23.40
2023-03-06T17:17:06.929Z,22.90
2023-03-06T17:18:06.879Z,23.90
2023-03-06T17:19:06.864Z,21.90
2023-03-06T17:20:06.870Z,22.80
2023-03-06T17:21:06.852Z,23.50
2023-03-06T17:22:06.866Z,25.50
2023-03-06T17:23:06.845Z,22.50
2023-03-06T17:24:06.825Z,23.30
2023-03-06T17:25:06.800Z,22.90
2023-03-06T17:26:06.803Z,21.40
2023-03-06T17:27:06.813Z,22.70
2023-03-06T17:28:06.768Z,23.50
2023-03-06T17:29:07.236Z,20.90
2023-03-06T17:30:06.747Z,22.30
2023-03-06T17:31:06.822Z,21.90
2023-03-06T17:32:06.737Z,22.20
2023-03-06T17:33:06.766Z,24.80
2023-03-06T17:34:06.704Z,21.40
2023-03-06T17:35:06.666Z,23.20
2023-03-06T17:36:06.661Z,24.60
2023-03-06T17:37:06.727Z,24.00
2023-03-06T17:38:06.670Z,25.10
2023-03-06T17:39:06.652Z,22.80
2023-03-06T17:40:06.639Z,23.30
2023-03-06T17:41:06.615Z,22.30
2023-03-06T17:42:06.603Z,21.40
2023-03-06T17:43:06.633Z,27.40
2023-03-06T17:44:06.596Z,24.40
2023-03-06T17:45:07.143Z,22.40
2023-03-06T17:46:06.701Z,22.00
2023-03-06T17:47:06.558Z,22.90
2023-03-06T17:48:06.524Z,24.40
2023-03-06T17:49:06.544Z,23.70
2023-03-06T17:50:06.504Z,24.60
2023-03-06T17:51:06.528Z,26.60
2023-03-06T17:52:06.484Z,25.30
2023-03-06T17:53:06.494Z,26.50
2023-03-06T17:54:07.008Z,27.70
2023-03-06T17:55:06.444Z,24.60
2023-03-06T17:56:06.436Z,29.60
2023-03-06T17:57:06.451Z,25.90
2023-03-06T17:58:06.437Z,24.50
2023-03-06T17:59:06.455Z,25.60
2023-03-06T18:00:06.400Z,25.30
2023-03-06T18:01:06.382Z,27.60
2023-03-06T18:02:06.627Z,27.50
2023-03-06T18:03:06.402Z,24.80
2023-03-06T18:04:06.336Z,25.20
2023-03-06T18:05:06.372Z,25.20
2023-03-06T18:06:06.330Z,26.70
2023-03-06T18:07:06.320Z,25.40
2023-03-06T18:08:06.278Z,26.10
2023-03-06T18:09:06.317Z,29.00
2023-03-06T18:10:06.345Z,25.40
2023-03-06T18:11:06.263Z,29.60
2023-03-06T18:12:06.266Z,27.50
2023-03-06T18:13:06.244Z,25.60
2023-03-06T18:14:06.256Z,27.50
2023-03-06T18:15:06.269Z,26.70
2023-03-06T18:16:06.293Z,27.00
2023-03-06T18:17:06.199Z,27.00
2023-03-06T18:18:06.188Z,26.20
2023-03-06T18:19:06.361Z,25.10
2023-03-06T18:20:06.214Z,25.70
2023-03-06T18:23:24.073Z,26.80
2023-03-06T18:24:24.133Z,25.70
2023-03-06T18:25:24.022Z,26.00
2023-03-06T18:26:23.933Z,28.20
2023-03-06T18:27:23.962Z,27.10
2023-03-06T18:28:23.891Z,26.10
2023-03-06T18:29:23.951Z,25.90
2023-03-06T18:30:23.856Z,27.30
2023-03-06T18:31:23.912Z,25.10
2023-03-06T18:32:23.876Z,26.60
2023-03-06T18:33:23.827Z,27.70
2023-03-06T18:34:23.812Z,26.60
2023-03-06T18:35:23.881Z,28.80
2023-03-06T18:36:23.779Z,27.00
2023-03-06T18:37:23.825Z,25.90
2023-03-06T18:38:23.757Z,32.60
2023-03-06T18:39:23.758Z,27.10
2023-03-06T18:40:24.907Z,26.90
2023-03-06T18:41:23.766Z,31.20
2023-03-06T18:42:23.809Z,24.60
2023-03-06T18:43:23.745Z,23.90
2023-03-06T18:44:23.696Z,26.20
2023-03-06T18:45:23.673Z,25.30
2023-03-06T18:46:23.699Z,28.60
2023-03-06T18:47:24.492Z,24.40
2023-03-06T18:48:23.656Z,26.60
2023-03-06T18:49:23.628Z,27.00
2023-03-06T18:50:23.626Z,26.10
2023-03-06T18:51:23.644Z,25.50
2023-03-06T18:52:23.586Z,27.00
2023-03-06T18:53:23.565Z,26.80
2023-03-06T18:54:23.589Z,26.30
2023-03-06T18:55:23.543Z,29.70
2023-03-06T18:56:23.524Z,26.40
2023-03-06T18:57:23.522Z,26.40
2023-03-06T18:58:23.501Z,28.50
2023-03-06T18:59:23.492Z,31.20
2023-03-06T19:00:23.498Z,30.40
2023-03-06T19:01:23.540Z,26.90
2023-03-06T19:02:23.455Z,26.10
2023-03-06T19:03:23.442Z,27.80
2023-03-06T19:04:23.496Z,28.30
2023-03-06T19:05:23.439Z,29.80
2023-03-06T19:06:23.412Z,28.60
2023-03-06T19:07:23.395Z,29.30
2023-03-06T19:08:23.448Z,29.10
2023-03-06T19:09:23.379Z,26.20
2023-03-06T19:10:23.388Z,29.60
2023-03-06T19:11:23.375Z,28.10
2023-03-06T19:12:23.335Z,25.90
2023-03-06T19:13:23.319Z,27.90
2023-03-06T19:14:23.336Z,28.00
2023-03-06T19:15:23.305Z,30.30
2023-03-06T19:16:23.372Z,28.90
2023-03-06T19:17:24.926Z,28.40
2023-03-06T19:18:23.269Z,28.20
2023-03-06T19:19:23.247Z,28.40
2023-03-06T19:20:23.297Z,29.10
2023-03-06T19:21:23.214Z,27.00
2023-03-06T19:22:23.246Z,29.10
2023-03-06T19:23:23.198Z,28.80
2023-03-06T19:24:23.213Z,31.60
2023-03-06T19:25:23.184Z,29.50
2023-03-06T19:26:23.164Z,28.90
2023-03-06T19:27:23.193Z,27.50
2023-03-06T19:28:23.493Z,28.00
2023-03-06T19:29:23.127Z,28.90
2023-03-06T19:30:23.117Z,29.50
2023-03-06T19:31:23.169Z,29.50
2023-03-06T19:32:23.210Z,30.00
2023-03-06T19:33:23.239Z,27.50
2023-03-06T19:34:23.073Z,27.50
2023-03-06T19:35:23.144Z,29.20
2023-03-06T19:36:23.044Z,27.80
2023-03-06T19:37:23.024Z,28.50
2023-03-06T19:38:23.212Z,30.30
2023-03-06T19:39:23.002Z,31.10
2023-03-06T19:40:22.995Z,29.10
2023-03-06T19:41:22.968Z,30.20
2023-03-06T19:42:22.966Z,28.30
2023-03-06T19:43:22.959Z,29.00
2023-03-06T19:44:23.019Z,26.60
2023-03-06T19:45:22.938Z,30.20
2023-03-06T19:46:22.917Z,30.40
2023-03-06T19:47:22.920Z,29.70
2023-03-06T19:48:22.919Z,26.10
2023-03-06T19:49:22.941Z,28.90
2023-03-06T19:50:22.934Z,29.10
2023-03-06T19:51:22.899Z,28.70
2023-03-06T19:52:22.839Z,29.50
2023-03-06T19:53:22.856Z,28.80
2023-03-06T19:54:22.817Z,28.10
2023-03-06T19:55:22.822Z,30.10
2023-03-06T19:56:22.807Z,29.20
2023-03-06T19:57:22.816Z,30.80
2023-03-06T19:58:22.766Z,29.10
2023-03-06T19:59:22.788Z,28.30
2023-03-06T20:00:22.784Z,27.70
2023-03-06T20:01:22.795Z,29.50
2023-03-06T20:02:22.731Z,30.00
2023-03-06T20:03:22.714Z,31.10
2023-03-06T20:04:22.744Z,28.30
2023-03-06T20:05:22.683Z,28.00
2023-03-06T20:06:22.701Z,28.30
2023-03-06T20:07:22.664Z,29.80
2023-03-06T20:08:22.646Z,27.00
2023-03-06T20:09:22.661Z,29.50
2023-03-06T20:10:22.651Z,28.20
2023-03-06T20:11:22.602Z,29.00
2023-03-06T20:12:22.713Z,29.30
2023-03-06T20:13:22.587Z,30.90
2023-03-06T20:14:22.573Z,29.00
2023-03-06T20:15:24.126Z,30.30
2023-03-06T20:16:23.691Z,31.80
2023-03-06T20:17:23.727Z,31.40
2023-03-06T20:18:23.652Z,29.60
2023-03-06T20:19:23.660Z,29.30
2023-03-06T20:20:23.632Z,29.80
2023-03-06T20:21:23.745Z,32.30
2023-03-06T20:22:23.666Z,29.70
2023-03-06T20:23:23.627Z,27.60
2023-03-06T20:24:23.622Z,30.60
2023-03-06T20:25:23.580Z,29.70
2023-03-06T20:26:23.566Z,31.70
2023-03-06T20:27:23.543Z,31.70
2023-03-06T20:28:23.636Z,30.90
2023-03-06T20:29:23.612Z,31.80
2023-03-06T20:30:24.259Z,29.00
2023-03-06T20:31:23.614Z,30.60
2023-03-06T20:32:23.782Z,29.90
2023-03-06T20:33:23.589Z,30.70
2023-03-06T20:34:23.492Z,29.80
2023-03-06T20:35:23.537Z,31.10
2023-03-06T20:36:24.515Z,32.40
2023-03-06T20:37:23.501Z,30.60
2023-03-06T20:38:25.319Z,31.40
2023-03-06T20:39:23.498Z,29.10
2023-03-06T20:40:23.453Z,31.60
2023-03-06T20:41:23.483Z,29.40
2023-03-06T20:42:23.431Z,32.20
2023-03-06T20:43:23.449Z,31.30
2023-03-06T20:44:23.437Z,32.20
2023-03-06T20:45:23.389Z,31.80
2023-03-06T20:46:25.295Z,32.00
2023-03-06T20:47:23.872Z,32.70
2023-03-06T20:48:23.476Z,33.00
2023-03-06T20:49:26.174Z,34.70
2023-03-06T20:50:25.408Z,31.60
2023-03-06T20:51:24.303Z,34.90
2023-03-06T20:54:57.653Z,32.50
2023-03-06T20:55:57.668Z,35.80
2023-03-06T20:56:57.637Z,35.00
2023-03-06T20:57:57.547Z,35.90
2023-03-06T20:58:57.505Z,34.50
2023-03-06T20:59:57.659Z,34.00
2023-03-06T21:00:57.604Z,36.70
2023-03-06T21:01:57.559Z,35.40
2023-03-06T21:02:57.469Z,34.30
2023-03-06T21:03:57.618Z,36.00
2023-03-06T21:04:57.415Z,36.70
2023-03-06T21:05:57.384Z,35.60
2023-03-06T21:06:57.394Z,38.60
2023-03-06T21:07:57.363Z,37.20
2023-03-06T21:08:57.344Z,37.70
2023-03-06T21:09:57.345Z,38.70
2023-03-06T21:10:57.327Z,39.70
2023-03-06T21:11:57.346Z,39.20
2023-03-06T21:12:57.297Z,40.40
2023-03-06T21:13:57.317Z,39.40
2023-03-06T21:14:57.281Z,39.10
2023-03-06T21:15:57.321Z,39.10
2023-03-06T21:16:57.264Z,40.00
2023-03-06T21:17:57.276Z,40.20
2023-03-06T21:18:57.236Z,41.70
2023-03-06T21:19:57.228Z,40.80
2023-03-06T21:20:57.212Z,41.00
2023-03-06T21:21:57.221Z,40.00
2023-03-06T21:25:11.467Z,40.70
2023-03-06T21:26:11.491Z,44.10
2023-03-06T21:27:12.229Z,43.30
2023-03-06T21:28:11.538Z,45.30